Time;durP1;ratioP1;P1;durP2;ratioP2;P2;SDS_P1;SDS_P2;PMS_P1;PMS_P2;Temp;Humidity;BMP_temperature;BMP_pressure;BME280_temperature;BME280_humidity;BME280_pressure;Samples;Min_cycle;Max_cycle;Signal;HPM_P1;HPM_P2
2023/07/28 13:35:26;;;;;;;10.25;3.67;;;;;;;;;;4952075;23;20080;-78
2023/07/28 13:39:13;;;;;;;9.30;3.10;;;;;;;;;;4893609;29;20060;-73
2023/07/28 13:42:53;;;;;;;16.70;3.40;;;;;;;;;;4896055;29;20139;-75
2023/07/28 13:46:33;;;;;;;11.60;3.47;;;;;;;;;;4888116;29;20078;-72
2023/07/28 13:50:14;;;;;;;10.73;3.70;;;;;;;;;;4889946;29;20037;-73
2023/07/28 13:53:54;;;;;;;15.80;4.00;;;;;;;;;;4882751;29;20048;-74
2023/07/28 13:57:37;;;;;;;9.40;3.60;;;;;;;;;;4883696;29;20084;-71
2023/07/28 14:01:17;;;;;;;11.75;3.33;;;;;;;;;;4880166;29;20485;-71
2023/07/28 14:04:57;;;;;;;16.83;4.07;;;;;;;;;;4878802;29;20041;-78
2023/07/28 14:08:44;;;;;;;8.68;3.15;;;;;;;;;;4881539;29;20127;-73
2023/07/28 14:12:24;;;;;;;12.00;3.30;;;;;;;;;;4894976;29;20045;-79
2023/07/28 14:16:05;;;;;;;15.55;3.55;;;;;;;;;;4892563;29;20056;-74
2023/07/28 14:19:45;;;;;;;15.57;3.28;;;;;;;;;;4894145;29;20044;-74
2023/07/28 14:23:42;;;;;;;12.23;3.42;;;;;;;;;;4891548;29;20505;-72
2023/07/28 14:27:22;;;;;;;11.70;3.35;;;;;;;;;;4890870;29;20048;-73
2023/07/28 14:31:03;;;;;;;12.50;3.25;;;;;;;;;;4895527;29;20059;-73
2023/07/28 14:34:44;;;;;;;11.63;3.00;;;;;;;;;;4899029;29;20131;-73
2023/07/28 14:38:25;;;;;;;10.73;3.38;;;;;;;;;;4897865;29;20056;-72
2023/07/28 14:42:06;;;;;;;13.65;3.60;;;;;;;;;;4896560;29;20057;-73
2023/07/28 14:45:46;;;;;;;10.73;3.08;;;;;;;;;;4893195;29;20044;-72
2023/07/28 14:49:28;;;;;;;16.80;3.42;;;;;;;;;;4884919;29;20052;-71
2023/07/28 14:53:08;;;;;;;9.13;2.90;;;;;;;;;;4883012;29;20229;-78
2023/07/28 14:56:48;;;;;;;15.82;3.55;;;;;;;;;;4890778;29;20053;-78
2023/07/28 15:00:29;;;;;;;7.47;3.13;;;;;;;;;;4884180;29;20039;-69
2023/07/28 15:04:11;;;;;;;11.68;3.10;;;;;;;;;;4879049;29;20075;-75
2023/07/28 15:07:49;;;;;;;16.23;3.67;;;;;;;;;;4887077;29;20506;-71
2023/07/28 15:11:30;;;;;;;14.77;3.30;;;;;;;;;;4885775;29;20394;-73
2023/07/28 15:15:10;;;;;;;10.52;3.63;;;;;;;;;;4880244;29;20048;-71
2023/07/28 15:18:51;;;;;;;9.18;3.88;;;;;;;;;;4878945;29;20063;-72
2023/07/28 15:22:32;;;;;;;9.70;3.45;;;;;;;;;;4880074;29;20630;-76
2023/07/28 15:26:11;;;;;;;14.75;3.53;;;;;;;;;;4877708;29;20500;-76
2023/07/28 15:29:52;;;;;;;9.00;3.20;;;;;;;;;;4874406;29;20444;-78
2023/07/28 15:33:32;;;;;;;17.13;3.33;;;;;;;;;;4879633;29;20060;-72
2023/07/28 15:37:13;;;;;;;22.23;3.70;;;;;;;;;;4879187;29;20048;-84
2023/07/28 15:40:57;;;;;;;11.65;3.55;;;;;;;;;;4882482;29;20096;-68
2023/07/28 15:44:35;;;;;;;9.88;3.17;;;;;;;;;;4875170;29;20052;-67
2023/07/28 15:48:15;;;;;;;10.73;3.50;;;;;;;;;;4876306;29;20165;-74
2023/07/28 15:51:56;;;;;;;10.77;3.28;;;;;;;;;;4875986;29;20520;-75
2023/07/28 15:55:36;;;;;;;11.05;3.60;;;;;;;;;;4872704;29;20069;-74
2023/07/28 15:59:16;;;;;;;11.60;3.15;;;;;;;;;;4873623;29;20409;-76
2023/07/28 16:02:57;;;;;;;9.98;3.17;;;;;;;;;;4879104;29;20045;-68
2023/07/28 16:06:37;;;;;;;11.07;3.17;;;;;;;;;;4873726;29;21510;-68
2023/07/28 16:10:33;;;;;;;13.15;3.60;;;;;;;;;;4878789;29;20107;-68
2023/07/28 16:14:14;;;;;;;11.80;3.35;;;;;;;;;;4876815;29;20044;-76
2023/07/28 16:17:54;;;;;;;10.07;3.15;;;;;;;;;;4878919;29;20064;-71
2023/07/28 16:21:35;;;;;;;13.55;3.63;;;;;;;;;;4875825;29;20077;-73
2023/07/28 16:25:16;;;;;;;13.57;3.60;;;;;;;;;;4877029;29;20108;-72
2023/07/28 16:28:55;;;;;;;11.75;3.63;;;;;;;;;;4876046;29;20082;-73
2023/07/28 16:32:36;;;;;;;9.75;3.20;;;;;;;;;;4876907;29;20082;-73
2023/07/28 16:36:16;;;;;;;15.73;3.63;;;;;;;;;;4875186;29;20053;-81
2023/07/28 16:39:58;;;;;;;13.45;3.97;;;;;;;;;;4876211;29;20065;-73
2023/07/28 16:43:40;;;;;;;11.65;3.88;;;;;;;;;;4876637;29;20778;-73
2023/07/28 16:47:22;;;;;;;11.68;3.60;;;;;;;;;;4877085;29;20049;-69
2023/07/28 16:51:01;;;;;;;10.60;3.80;;;;;;;;;;4883706;29;20048;-73
2023/07/28 16:54:41;;;;;;;16.30;3.90;;;;;;;;;;4876963;29;20045;-74
2023/07/28 16:58:22;;;;;;;11.60;3.67;;;;;;;;;;4876817;29;20449;-74
2023/07/28 17:02:02;;;;;;;9.57;3.13;;;;;;;;;;4875932;29;20143;-73
2023/07/28 17:05:43;;;;;;;19.73;4.60;;;;;;;;;;4875790;29;20386;-73
2023/07/28 17:09:25;;;;;;;17.85;3.45;;;;;;;;;;4877410;29;20665;-71
2023/07/28 17:13:04;;;;;;;10.75;3.13;;;;;;;;;;4875375;29;20136;-74
2023/07/28 17:16:45;;;;;;;9.43;3.13;;;;;;;;;;4879139;29;20116;-73
2023/07/28 17:20:25;;;;;;;17.50;3.97;;;;;;;;;;4891849;29;20140;-73
2023/07/28 17:24:06;;;;;;;13.90;3.22;;;;;;;;;;4897910;29;20060;-68
2023/07/28 17:27:46;;;;;;;9.73;2.92;;;;;;;;;;4893553;29;20059;-70
2023/07/28 17:31:29;;;;;;;13.95;3.13;;;;;;;;;;4889190;29;20354;-78
2023/07/28 17:35:10;;;;;;;12.40;3.00;;;;;;;;;;4876414;29;20501;-76
2023/07/28 17:38:50;;;;;;;12.48;3.28;;;;;;;;;;4882155;29;20053;-75
2023/07/28 17:42:30;;;;;;;8.48;2.78;;;;;;;;;;4882987;29;20057;-72
2023/07/28 17:46:11;;;;;;;9.88;2.53;;;;;;;;;;4879322;29;20560;-72
2023/07/28 17:49:51;;;;;;;7.20;2.83;;;;;;;;;;4882645;29;20144;-68
2023/07/28 17:53:32;;;;;;;9.27;3.03;;;;;;;;;;4880312;29;20078;-72
2023/07/28 17:57:12;;;;;;;12.38;3.38;;;;;;;;;;4881554;29;20060;-75
2023/07/28 18:00:52;;;;;;;11.93;3.05;;;;;;;;;;4879627;29;20091;-74
2023/07/28 18:04:33;;;;;;;13.55;3.03;;;;;;;;;;4880974;29;20161;-75
2023/07/28 18:08:13;;;;;;;9.30;3.33;;;;;;;;;;4892184;29;20087;-73
2023/07/28 18:11:54;;;;;;;14.05;3.38;;;;;;;;;;4888390;29;20509;-74
2023/07/28 18:15:35;;;;;;;8.55;2.72;;;;;;;;;;4891328;29;20569;-73
2023/07/28 18:19:15;;;;;;;9.93;2.55;;;;;;;;;;4890877;29;20052;-76
2023/07/28 18:22:55;;;;;;;9.93;2.80;;;;;;;;;;4894964;29;20052;-77
2023/07/28 18:26:36;;;;;;;13.88;2.75;;;;;;;;;;4893980;29;20119;-77
2023/07/28 18:30:16;;;;;;;13.27;2.83;;;;;;;;;;4890671;29;20113;-78
2023/07/28 18:33:57;;;;;;;7.88;3.00;;;;;;;;;;4893411;29;20060;-75
2023/07/28 18:37:38;;;;;;;7.50;3.03;;;;;;;;;;4892912;29;20600;-75
2023/07/28 18:41:19;;;;;;;14.25;2.80;;;;;;;;;;4892187;29;20049;-75
2023/07/28 18:44:59;;;;;;;10.68;2.67;;;;;;;;;;4883832;29;20053;-74
2023/07/28 18:48:39;;;;;;;9.40;3.03;;;;;;;;;;4891529;29;20080;-74
2023/07/28 18:52:20;;;;;;;10.40;3.00;;;;;;;;;;4890803;29;20053;-74
2023/07/28 18:56:00;;;;;;;9.90;3.05;;;;;;;;;;4890596;29;20113;-75
2023/07/28 18:59:40;;;;;;;11.20;2.65;;;;;;;;;;4887381;29;20052;-75
2023/07/28 19:03:21;;;;;;;10.98;2.63;;;;;;;;;;4890421;29;20059;-73
2023/07/28 19:07:01;;;;;;;13.02;3.13;;;;;;;;;;4892603;29;20048;-75
2023/07/28 19:10:44;;;;;;;7.43;2.47;;;;;;;;;;4886075;29;20040;-75
2023/07/28 19:14:22;;;;;;;9.27;3.03;;;;;;;;;;4891850;29;20176;-76
2023/07/28 19:18:02;;;;;;;10.75;3.03;;;;;;;;;;4892781;29;20831;-76
2023/07/28 19:21:42;;;;;;;11.13;2.80;;;;;;;;;;4896413;29;20048;-74
2023/07/28 19:25:23;;;;;;;23.13;3.10;;;;;;;;;;4885280;29;20047;-75
2023/07/28 19:29:06;;;;;;;11.55;3.00;;;;;;;;;;4879246;29;20056;-74
2023/07/28 19:32:44;;;;;;;12.45;2.88;;;;;;;;;;4891507;29;20056;-76
2023/07/28 19:36:25;;;;;;;11.63;2.75;;;;;;;;;;4889103;29;20060;-74
2023/07/28 19:40:05;;;;;;;16.02;2.67;;;;;;;;;;4885395;29;20071;-75
2023/07/28 19:43:45;;;;;;;14.77;2.95;;;;;;;;;;4882798;29;20450;-74
2023/07/28 19:47:26;;;;;;;8.02;2.78;;;;;;;;;;4892628;29;20041;-74
2023/07/28 19:51:07;;;;;;;13.30;2.92;;;;;;;;;;4891086;29;20474;-75
2023/07/28 19:54:48;;;;;;;7.70;2.55;;;;;;;;;;4888510;29;20124;-74
2023/07/28 19:58:28;;;;;;;6.10;2.40;;;;;;;;;;4887742;29;20405;-75
2023/07/28 20:02:08;;;;;;;9.23;2.58;;;;;;;;;;4891866;29;20049;-75
2023/07/28 20:05:49;;;;;;;9.70;2.55;;;;;;;;;;4884142;29;20584;-75
2023/07/28 20:09:29;;;;;;;8.43;2.72;;;;;;;;;;4888117;29;20111;-74
2023/07/28 20:13:09;;;;;;;9.60;2.50;;;;;;;;;;4885499;29;20047;-77
2023/07/28 20:16:50;;;;;;;12.77;2.92;;;;;;;;;;4893244;29;20275;-75
2023/07/28 20:20:31;;;;;;;10.23;2.78;;;;;;;;;;4891019;29;20052;-77
2023/07/28 20:24:10;;;;;;;8.23;2.55;;;;;;;;;;4883278;29;20555;-76
2023/07/28 20:27:51;;;;;;;9.65;2.65;;;;;;;;;;4884948;29;20138;-77
2023/07/28 20:31:32;;;;;;;13.82;2.75;;;;;;;;;;4888113;29;20394;-75
2023/07/28 20:35:13;;;;;;;14.20;2.33;;;;;;;;;;4887807;29;20070;-75
2023/07/28 20:38:53;;;;;;;9.23;3.08;;;;;;;;;;4886956;29;20383;-77
2023/07/28 20:42:33;;;;;;;14.02;2.67;;;;;;;;;;4892268;29;20070;-74
2023/07/28 20:46:15;;;;;;;8.02;2.40;;;;;;;;;;4879353;29;20064;-79
2023/07/28 20:49:54;;;;;;;10.68;2.17;;;;;;;;;;4884113;29;20052;-76
2023/07/28 20:53:34;;;;;;;7.97;2.50;;;;;;;;;;4887013;29;20156;-76
2023/07/28 20:57:15;;;;;;;5.18;2.15;;;;;;;;;;4886342;29;20057;-75
2023/07/28 21:00:44;;;;;;;7.78;2.40;;;;;;;;;;4883328;29;20509;-76
2023/07/28 21:03:10;;;;;;;7.80;1.98;;;;;;;;;;4867672;29;20053;-75
2023/07/28 21:05:39;;;;;;;9.27;2.13;;;;;;;;;;4878033;29;20059;-75
2023/07/28 21:08:05;;;;;;;9.90;2.30;;;;;;;;;;4875044;29;20060;-78
2023/07/28 21:10:33;;;;;;;16.73;2.55;;;;;;;;;;4866408;29;20041;-70
2023/07/28 21:13:00;;;;;;;11.07;2.33;;;;;;;;;;4884135;29;20060;-70
2023/07/28 21:15:27;;;;;;;8.35;2.30;;;;;;;;;;4879733;29;20115;-72
2023/07/28 21:17:53;;;;;;;10.02;2.63;;;;;;;;;;4881605;29;20284;-70
2023/07/28 21:20:20;;;;;;;11.00;2.30;;;;;;;;;;4851117;29;20059;-71
2023/07/28 21:22:47;;;;;;;9.38;2.35;;;;;;;;;;4880719;29;20061;-71
2023/07/28 21:25:14;;;;;;;6.43;2.20;;;;;;;;;;4878600;29;20100;-73
2023/07/28 21:27:40;;;;;;;10.82;2.40;;;;;;;;;;4885188;29;20062;-71
2023/07/28 21:30:07;;;;;;;8.88;2.50;;;;;;;;;;4883630;29;20510;-69
2023/07/28 21:32:35;;;;;;;8.68;2.30;;;;;;;;;;4866770;29;20987;-71
2023/07/28 21:35:01;;;;;;;6.00;2.38;;;;;;;;;;4880147;29;20071;-71
2023/07/28 21:37:30;;;;;;;6.03;2.00;;;;;;;;;;4879790;29;20067;-69
2023/07/28 21:39:56;;;;;;;12.50;2.45;;;;;;;;;;4850368;29;20072;-67
2023/07/28 21:42:23;;;;;;;12.48;2.70;;;;;;;;;;4877462;29;20060;-68
2023/07/28 21:44:49;;;;;;;8.32;2.15;;;;;;;;;;4878126;29;20053;-69
2023/07/28 21:47:17;;;;;;;8.88;2.05;;;;;;;;;;4867983;29;20175;-68
2023/07/28 21:49:44;;;;;;;7.47;2.20;;;;;;;;;;4880691;29;20056;-70
2023/07/28 21:52:12;;;;;;;10.40;2.17;;;;;;;;;;4880995;29;20052;-68
2023/07/28 21:54:38;;;;;;;12.65;2.40;;;;;;;;;;4882375;29;20057;-68
2023/07/28 21:57:06;;;;;;;7.82;2.00;;;;;;;;;;4880143;29;20348;-67
2023/07/28 21:59:32;;;;;;;15.20;2.53;;;;;;;;;;4880390;29;20466;-68
2023/07/28 22:02:00;;;;;;;7.95;2.45;;;;;;;;;;4879891;29;20053;-67
2023/07/28 22:04:26;;;;;;;10.52;2.28;;;;;;;;;;4879784;29;20052;-67
2023/07/28 22:06:53;;;;;;;8.35;2.03;;;;;;;;;;4865969;29;20132;-68
2023/07/28 22:09:20;;;;;;;10.70;2.65;;;;;;;;;;4880775;29;21282;-68
2023/07/28 22:11:47;;;;;;;9.43;2.03;;;;;;;;;;4864601;29;20123;-66
2023/07/28 22:14:13;;;;;;;10.60;2.22;;;;;;;;;;4880213;29;20052;-68
2023/07/28 22:17:19;;;;;;;9.45;2.15;;;;;;;;;;4880491;29;20117;-66
2023/07/28 22:20:59;;;;;;;8.27;2.45;;;;;;;;;;4879294;29;20437;-66
2023/07/28 22:24:39;;;;;;;9.48;2.20;;;;;;;;;;4880370;29;20037;-67
2023/07/28 22:28:20;;;;;;;13.52;2.53;;;;;;;;;;4877514;29;20116;-68
2023/07/28 22:32:00;;;;;;;7.18;1.70;;;;;;;;;;4881824;29;20161;-70
2023/07/28 22:35:41;;;;;;;11.55;2.30;;;;;;;;;;4879482;29;20073;-68
2023/07/28 22:38:41;;;;;;;8.18;2.03;;;;;;;;;;4879008;29;20084;-68
2023/07/28 22:41:07;;;;;;;7.45;2.28;;;;;;;;;;4880317;29;20528;-68
2023/07/28 22:43:33;;;;;;;6.88;1.80;;;;;;;;;;4879535;29;20049;-68
2023/07/28 22:46:02;;;;;;;7.28;2.20;;;;;;;;;;4866837;29;20049;-68
2023/07/28 22:48:28;;;;;;;8.90;2.60;;;;;;;;;;4877522;29;20060;-70
2023/07/28 22:50:57;;;;;;;5.40;1.75;;;;;;;;;;4862055;29;20053;-70
2023/07/28 22:53:22;;;;;;;7.70;2.30;;;;;;;;;;4879534;29;20063;-73
2023/07/28 22:55:52;;;;;;;8.50;1.92;;;;;;;;;;4880673;29;20493;-71
2023/07/28 22:58:18;;;;;;;9.32;2.55;;;;;;;;;;4881175;29;20053;-70
2023/07/28 23:00:44;;;;;;;8.35;1.95;;;;;;;;;;4879628;29;20393;-71
2023/07/28 23:03:11;;;;;;;9.60;2.42;;;;;;;;;;4877572;29;20044;-69
2023/07/28 23:05:38;;;;;;;8.15;1.90;;;;;;;;;;4878826;29;20079;-71
2023/07/28 23:08:04;;;;;;;8.80;2.13;;;;;;;;;;4880575;29;20052;-68
2023/07/28 23:10:30;;;;;;;9.05;2.42;;;;;;;;;;4879900;29;20763;-70
2023/07/28 23:12:56;;;;;;;9.65;2.28;;;;;;;;;;4878614;29;20051;-68
2023/07/28 23:15:23;;;;;;;8.32;1.85;;;;;;;;;;4879088;29;20053;-69
2023/07/28 23:17:49;;;;;;;8.30;2.78;;;;;;;;;;4878762;29;20180;-68
2023/07/28 23:20:15;;;;;;;8.15;2.08;;;;;;;;;;4879212;29;20489;-68
2023/07/28 23:22:41;;;;;;;10.32;2.33;;;;;;;;;;4878518;29;20144;-69
2023/07/28 23:25:09;;;;;;;8.85;2.45;;;;;;;;;;4867285;29;20087;-70
2023/07/28 23:27:35;;;;;;;8.82;2.35;;;;;;;;;;4880180;29;20096;-70
2023/07/28 23:30:02;;;;;;;9.55;2.10;;;;;;;;;;4880870;29;20769;-70
2023/07/28 23:33:07;;;;;;;6.75;2.05;;;;;;;;;;4878522;29;20057;-68
2023/07/28 23:36:49;;;;;;;10.63;2.33;;;;;;;;;;4877120;29;20053;-69
2023/07/28 23:40:31;;;;;;;11.43;2.60;;;;;;;;;;4877206;29;20136;-70
2023/07/28 23:44:12;;;;;;;9.63;2.60;;;;;;;;;;4876269;29;20056;-70
2023/07/28 23:47:53;;;;;;;6.68;2.13;;;;;;;;;;4879059;29;20056;-70
2023/07/28 23:51:34;;;;;;;8.20;2.10;;;;;;;;;;4875549;29;20036;-69
2023/07/28 23:55:14;;;;;;;8.93;2.03;;;;;;;;;;4877914;29;20052;-67
2023/07/28 23:58:56;;;;;;;10.95;2.22;;;;;;;;;;4876805;29;20032;-68
